createdAt,value
2022-09-26T00:00:24.126Z,96.47
2022-09-26T00:01:24.147Z,96.47
2022-09-26T00:02:24.105Z,96.47
2022-09-26T00:03:23.965Z,96.47
2022-09-26T00:04:26.872Z,96.47
2022-09-26T00:05:23.864Z,96.37
2022-09-26T00:06:23.810Z,96.47
2022-09-26T00:07:23.754Z,96.47
2022-09-26T00:08:23.703Z,96.56
2022-09-26T00:09:23.648Z,96.37
2022-09-26T00:10:23.596Z,96.37
2022-09-26T00:11:23.545Z,96.66
2022-09-26T00:12:23.493Z,96.66
2022-09-26T00:13:23.440Z,96.37
2022-09-26T00:14:23.385Z,96.47
2022-09-26T00:15:23.336Z,96.66
2022-09-26T00:16:23.351Z,96.37
2022-09-26T00:17:23.230Z,96.66
2022-09-26T00:18:23.180Z,96.37
2022-09-26T00:19:23.123Z,96.66
2022-09-26T00:20:23.069Z,96.66
2022-09-26T00:21:23.023Z,96.66
2022-09-26T00:22:22.963Z,96.66
2022-09-26T00:23:22.990Z,96.56
2022-09-26T00:24:22.862Z,96.56
2022-09-26T00:25:22.805Z,96.37
2022-09-26T00:26:22.755Z,96.47
2022-09-26T00:27:22.701Z,96.56
2022-09-26T00:28:22.648Z,96.56
2022-09-26T00:29:22.596Z,96.66
2022-09-26T00:30:22.646Z,96.56
2022-09-26T00:31:22.639Z,96.37
2022-09-26T00:32:22.436Z,96.37
2022-09-26T00:33:22.384Z,96.66
2022-09-26T00:34:22.338Z,96.66
2022-09-26T00:35:22.279Z,96.66
2022-09-26T00:36:26.877Z,96.37
2022-09-26T00:37:22.173Z,96.56
2022-09-26T00:38:22.122Z,96.37
2022-09-26T00:39:22.068Z,96.37
2022-09-26T00:40:22.026Z,96.37
2022-09-26T00:41:21.963Z,96.37
2022-09-26T00:42:21.909Z,96.66
2022-09-26T00:43:21.859Z,96.66
2022-09-26T00:44:21.806Z,96.47
2022-09-26T00:45:21.751Z,96.47
2022-09-26T00:46:21.753Z,96.56
2022-09-26T00:47:21.646Z,96.37
2022-09-26T00:48:21.597Z,96.56
2022-09-26T00:49:21.540Z,96.37
2022-09-26T00:50:21.587Z,96.37
2022-09-26T00:51:21.435Z,96.66
2022-09-26T00:52:21.380Z,96.66
2022-09-26T00:53:21.331Z,96.47
2022-09-26T00:54:21.275Z,96.47
2022-09-26T00:55:21.225Z,96.37
2022-09-26T00:56:21.172Z,96.47
2022-09-26T00:57:21.118Z,96.37
2022-09-26T00:58:21.064Z,96.47
2022-09-26T00:59:21.015Z,96.47
2022-09-26T01:00:20.961Z,96.37
2022-09-26T01:01:21.085Z,96.47
2022-09-26T01:02:21.001Z,96.37
2022-09-26T01:03:20.810Z,96.47
2022-09-26T01:04:20.748Z,96.47
2022-09-26T01:05:20.697Z,96.47
2022-09-26T01:06:20.651Z,96.56
2022-09-26T01:07:20.593Z,96.66
2022-09-26T01:08:20.540Z,96.56
2022-09-26T01:09:20.485Z,96.56
2022-09-26T01:10:20.436Z,96.66
2022-09-26T01:11:20.381Z,96.56
2022-09-26T01:12:20.329Z,96.56
2022-09-26T01:13:20.275Z,96.56
2022-09-26T01:14:20.222Z,96.56
2022-09-26T01:15:20.169Z,96.47
2022-09-26T01:16:20.187Z,96.56
2022-09-26T01:17:20.064Z,96.56
2022-09-26T01:18:20.011Z,96.47
2022-09-26T01:19:19.959Z,96.66
2022-09-26T01:20:19.907Z,96.66
2022-09-26T01:21:19.855Z,96.75
2022-09-26T01:22:19.806Z,96.37
2022-09-26T01:23:19.748Z,96.37
2022-09-26T01:24:19.696Z,96.37
2022-09-26T01:25:19.643Z,96.56
2022-09-26T01:26:19.588Z,96.37
2022-09-26T01:27:19.542Z,96.27
2022-09-26T01:28:19.483Z,96.27
2022-09-26T01:29:19.435Z,96.66
2022-09-26T01:30:19.376Z,96.75
2022-09-26T01:31:19.388Z,96.85
2022-09-26T01:32:19.274Z,96.70
2022-09-26T01:33:19.223Z,96.66
2022-09-26T01:34:19.170Z,96.66
2022-09-26T01:35:19.114Z,96.85
2022-09-26T01:36:19.065Z,96.66
2022-09-26T01:37:19.009Z,96.75
2022-09-26T01:38:18.962Z,96.85
2022-09-26T01:39:19.018Z,96.75
2022-09-26T01:40:18.897Z,96.47
2022-09-26T01:41:18.803Z,96.66
2022-09-26T01:42:18.745Z,96.66
2022-09-26T01:43:18.693Z,96.47
2022-09-26T01:44:18.640Z,96.47
2022-09-26T01:45:18.588Z,96.66
2022-09-26T01:46:18.568Z,96.42
2022-09-26T01:47:18.483Z,96.47
2022-09-26T01:48:18.433Z,96.56
2022-09-26T01:49:18.375Z,96.56
2022-09-26T01:50:18.321Z,96.37
2022-09-26T01:51:18.270Z,96.85
2022-09-26T01:52:18.215Z,96.37
2022-09-26T01:53:18.164Z,96.56
2022-09-26T01:54:18.198Z,96.56
2022-09-26T01:55:18.060Z,96.51
2022-09-26T01:56:18.004Z,96.66
2022-09-26T01:57:17.953Z,96.42
2022-09-26T01:58:17.899Z,96.56
2022-09-26T01:59:17.847Z,96.08
2022-09-26T02:00:17.793Z,96.42
2022-09-26T02:01:17.801Z,96.42
2022-09-26T02:02:17.761Z,96.27
2022-09-26T02:03:17.637Z,96.47
2022-09-26T02:04:17.582Z,96.42
2022-09-26T02:05:17.550Z,96.42
2022-09-26T02:06:17.477Z,96.75
2022-09-26T02:07:17.434Z,96.03
2022-09-26T02:08:17.373Z,96.18
2022-09-26T02:09:17.322Z,96.22
2022-09-26T02:10:17.356Z,96.42
2022-09-26T02:11:17.232Z,96.51
2022-09-26T02:12:17.160Z,96.18
2022-09-26T02:13:17.110Z,96.27
2022-09-26T02:14:18.910Z,96.22
2022-09-26T02:15:17.003Z,96.22
2022-09-26T02:16:16.966Z,96.08
2022-09-26T02:17:16.898Z,96.47
2022-09-26T02:18:16.843Z,96.03
2022-09-26T02:19:16.795Z,96.37
2022-09-26T02:20:16.744Z,96.08
2022-09-26T02:21:16.687Z,96.08
2022-09-26T02:22:16.631Z,96.42
2022-09-26T02:23:16.582Z,96.32
2022-09-26T02:24:16.531Z,96.22
2022-09-26T02:25:16.611Z,96.47
2022-09-26T02:26:16.428Z,96.22
2022-09-26T02:27:16.390Z,96.37
2022-09-26T02:28:16.314Z,96.32
2022-09-26T02:29:16.262Z,96.37
2022-09-26T02:30:16.264Z,96.13
2022-09-26T02:31:16.159Z,95.56
2022-09-26T02:32:16.230Z,96.32
2022-09-26T02:33:16.051Z,95.56
2022-09-26T02:34:15.997Z,96.18
2022-09-26T02:35:15.949Z,96.32
2022-09-26T02:36:15.892Z,95.56
2022-09-26T02:37:15.841Z,96.27
2022-09-26T02:38:15.789Z,96.03
2022-09-26T02:39:15.886Z,96.27
2022-09-26T02:40:15.712Z,95.89
2022-09-26T02:41:15.633Z,95.46
2022-09-26T02:42:15.588Z,96.37
2022-09-26T02:43:15.526Z,95.41
2022-09-26T02:44:15.473Z,96.37
2022-09-26T02:45:15.418Z,95.89
2022-09-26T02:46:15.395Z,96.27
2022-09-26T02:47:15.316Z,96.32
2022-09-26T02:48:15.262Z,96.32
2022-09-26T02:49:15.435Z,95.75
2022-09-26T02:50:15.153Z,95.98
2022-09-26T02:51:15.105Z,96.03
2022-09-26T02:52:15.047Z,95.84
2022-09-26T02:53:14.996Z,95.41
2022-09-26T02:54:14.942Z,95.98
2022-09-26T02:55:14.902Z,95.36
2022-09-26T02:56:14.836Z,96.08
2022-09-26T02:57:14.786Z,95.84
2022-09-26T02:58:14.737Z,95.89
2022-09-26T02:59:14.872Z,95.84
2022-09-26T03:00:14.625Z,95.56
2022-09-26T03:01:14.640Z,95.56
2022-09-26T03:02:14.520Z,95.56
2022-09-26T03:03:14.467Z,95.56
2022-09-26T03:04:14.448Z,95.75
2022-09-26T03:05:14.363Z,95.84
2022-09-26T03:06:14.306Z,95.75
2022-09-26T03:07:14.255Z,95.75
2022-09-26T03:08:14.204Z,95.84
2022-09-26T03:09:14.281Z,95.75
2022-09-26T03:10:14.098Z,95.89
2022-09-26T03:11:14.044Z,95.94
2022-09-26T03:12:13.992Z,95.94
2022-09-26T03:13:13.938Z,95.94
2022-09-26T03:14:13.892Z,95.79
2022-09-26T03:15:13.835Z,95.94
2022-09-26T03:16:13.810Z,95.94
2022-09-26T03:17:13.727Z,95.94
2022-09-26T03:18:13.671Z,95.65
2022-09-26T03:19:13.659Z,95.84
2022-09-26T03:20:13.569Z,95.84
2022-09-26T03:21:13.516Z,95.75
2022-09-26T03:22:13.462Z,95.84
2022-09-26T03:23:13.409Z,95.75
2022-09-26T03:24:13.356Z,95.84
2022-09-26T03:25:13.304Z,95.56
2022-09-26T03:26:13.250Z,95.56
2022-09-26T03:27:13.198Z,95.56
2022-09-26T03:28:13.159Z,95.84
2022-09-26T03:29:13.180Z,95.65
2022-09-26T03:30:13.920Z,95.84
2022-09-26T03:31:13.958Z,95.65
2022-09-26T03:32:13.933Z,95.84
2022-09-26T03:33:12.880Z,95.56
2022-09-26T03:34:12.858Z,95.75
2022-09-26T03:35:12.775Z,95.94
2022-09-26T03:36:12.720Z,95.94
2022-09-26T03:37:12.669Z,95.84
2022-09-26T03:38:14.491Z,95.94
2022-09-26T03:39:12.695Z,95.84
2022-09-26T03:40:12.549Z,95.84
2022-09-26T03:41:12.481Z,96.03
2022-09-26T03:42:12.403Z,95.84
2022-09-26T03:43:12.360Z,96.03
2022-09-26T03:44:12.300Z,95.84
2022-09-26T03:45:12.246Z,95.94
2022-09-26T03:46:12.347Z,95.84
2022-09-26T03:47:12.141Z,96.03
2022-09-26T03:48:12.085Z,95.36
2022-09-26T03:49:12.168Z,95.36
2022-09-26T03:50:11.982Z,95.46
2022-09-26T03:51:11.928Z,95.26
2022-09-26T03:52:11.876Z,95.36
2022-09-26T03:53:11.824Z,95.17
2022-09-26T03:54:11.768Z,95.56
2022-09-26T03:55:11.718Z,95.56
2022-09-26T03:56:11.664Z,95.94
2022-09-26T03:57:11.612Z,95.75
2022-09-26T03:58:11.557Z,95.84
2022-09-26T03:59:11.543Z,95.65
2022-09-26T04:00:11.452Z,95.56
2022-09-26T04:01:11.511Z,95.56
2022-09-26T04:02:11.404Z,95.46
2022-09-26T04:03:11.298Z,96.13
2022-09-26T04:04:11.241Z,94.98
2022-09-26T04:05:11.189Z,95.26
2022-09-26T04:06:11.134Z,94.98
2022-09-26T04:07:11.082Z,95.07
2022-09-26T04:08:11.033Z,94.98
2022-09-26T04:09:15.886Z,95.07
2022-09-26T04:10:10.959Z,94.98
2022-09-26T04:11:10.874Z,95.07
2022-09-26T04:12:10.816Z,95.36
2022-09-26T04:13:10.764Z,95.17
2022-09-26T04:14:10.710Z,95.07
2022-09-26T04:15:10.659Z,95.36
2022-09-26T04:16:10.638Z,95.26
2022-09-26T04:17:10.552Z,95.17
2022-09-26T04:18:10.544Z,95.26
2022-09-26T04:19:10.447Z,95.46
2022-09-26T04:20:10.394Z,95.56
2022-09-26T04:21:10.344Z,95.07
2022-09-26T04:22:10.290Z,95.17
2022-09-26T04:23:10.237Z,95.26
2022-09-26T04:24:10.181Z,95.07
2022-09-26T04:25:10.131Z,95.56
2022-09-26T04:26:10.076Z,95.56
2022-09-26T04:27:10.024Z,95.17
2022-09-26T04:28:09.970Z,95.26
2022-09-26T04:29:10.017Z,94.98
2022-09-26T04:30:09.974Z,95.26
2022-09-26T04:31:09.846Z,95.17
2022-09-26T04:32:09.759Z,95.17
2022-09-26T04:33:09.704Z,95.46
2022-09-26T04:34:09.659Z,95.26
2022-09-26T04:35:09.603Z,95.17
2022-09-26T04:36:09.547Z,95.17
2022-09-26T04:37:09.501Z,95.17
2022-09-26T04:38:09.449Z,95.36
2022-09-26T04:39:09.523Z,94.98
2022-09-26T04:40:09.341Z,95.17
2022-09-26T04:41:09.402Z,95.07
2022-09-26T04:42:09.231Z,95.17
2022-09-26T04:43:09.183Z,95.07
2022-09-26T04:44:09.127Z,94.69
2022-09-26T04:45:09.068Z,94.59
2022-09-26T04:46:09.097Z,94.59
2022-09-26T04:47:08.965Z,94.50
2022-09-26T04:48:08.913Z,94.79
2022-09-26T04:49:08.861Z,94.69
2022-09-26T04:50:08.813Z,94.79
2022-09-26T04:51:08.754Z,94.89
2022-09-26T04:52:08.701Z,94.89
2022-09-26T04:53:08.650Z,94.89
2022-09-26T04:54:08.599Z,94.89
2022-09-26T04:55:08.539Z,94.40
2022-09-26T04:56:08.487Z,94.50
2022-09-26T04:57:08.433Z,94.31
2022-09-26T04:58:08.386Z,94.40
2022-09-26T04:59:08.330Z,94.40
2022-09-26T05:00:08.276Z,94.50
2022-09-26T05:01:08.260Z,94.50
2022-09-26T05:02:08.237Z,94.31
2022-09-26T05:03:08.157Z,94.50
2022-09-26T05:04:08.073Z,94.50
2022-09-26T05:05:08.010Z,94.59
2022-09-26T05:06:07.964Z,94.59
2022-09-26T05:07:07.905Z,94.69
2022-09-26T05:08:07.855Z,94.50
2022-09-26T05:09:07.808Z,94.21
2022-09-26T05:10:07.746Z,94.02
2022-09-26T05:11:07.694Z,93.54
2022-09-26T05:12:07.643Z,93.93
2022-09-26T05:13:07.584Z,93.83
2022-09-26T05:14:07.538Z,93.54
2022-09-26T05:15:07.478Z,93.35
2022-09-26T05:16:07.465Z,93.73
2022-09-26T05:17:07.372Z,93.54
2022-09-26T05:18:07.323Z,93.83
2022-09-26T05:19:07.266Z,94.02
2022-09-26T05:20:07.217Z,94.02
2022-09-26T05:21:07.161Z,93.54
2022-09-26T05:22:07.120Z,93.83
2022-09-26T05:23:07.054Z,93.26
2022-09-26T05:24:07.008Z,93.16
2022-09-26T05:25:06.950Z,93.54
2022-09-26T05:26:06.901Z,93.16
2022-09-26T05:27:06.843Z,93.35
2022-09-26T05:28:06.791Z,93.16
2022-09-26T05:29:08.829Z,93.35
2022-09-26T05:30:06.686Z,92.97
2022-09-26T05:31:06.661Z,92.97
2022-09-26T05:32:06.666Z,92.97
2022-09-26T05:33:06.526Z,93.16
2022-09-26T05:34:06.472Z,92.87
2022-09-26T05:35:06.420Z,92.77
2022-09-26T05:36:06.367Z,92.68
2022-09-26T05:37:06.314Z,92.97
2022-09-26T05:38:06.269Z,92.58
2022-09-26T05:39:06.233Z,92.49
2022-09-26T05:40:06.155Z,92.58
2022-09-26T05:41:06.163Z,92.68
2022-09-26T05:42:06.052Z,92.30
2022-09-26T05:43:05.997Z,92.49
2022-09-26T05:44:05.943Z,92.20
2022-09-26T05:45:05.888Z,91.82
2022-09-26T05:46:05.836Z,92.10
2022-09-26T05:47:05.908Z,91.63
2022-09-26T05:48:05.733Z,91.82
2022-09-26T05:49:05.746Z,91.72
2022-09-26T05:50:05.623Z,92.30
2022-09-26T05:51:05.570Z,92.30
2022-09-26T05:52:05.616Z,92.01
2022-09-26T05:53:05.467Z,92.58
2022-09-26T05:54:05.416Z,92.39
2022-09-26T05:55:05.357Z,91.91
2022-09-26T05:56:05.309Z,92.10
2022-09-26T05:57:05.250Z,91.63
2022-09-26T05:58:05.199Z,92.01
2022-09-26T05:59:05.145Z,92.10
2022-09-26T06:00:05.098Z,91.82
2022-09-26T06:01:05.124Z,91.72
2022-09-26T06:02:05.087Z,91.63
2022-09-26T06:03:04.933Z,91.14
2022-09-26T06:04:04.883Z,91.43
2022-09-26T06:05:04.901Z,91.43
2022-09-26T06:06:04.776Z,91.05
2022-09-26T06:07:04.726Z,91.24
2022-09-26T06:08:04.670Z,91.39
2022-09-26T06:09:04.612Z,91.14
2022-09-26T06:10:04.570Z,91.24
2022-09-26T06:11:04.509Z,91.43
2022-09-26T06:12:04.458Z,91.58
2022-09-26T06:13:04.400Z,91.53
2022-09-26T06:14:04.350Z,91.34
2022-09-26T06:15:04.297Z,91.43
2022-09-26T06:16:04.304Z,91.14
2022-09-26T06:17:04.190Z,91.29
2022-09-26T06:18:04.140Z,91.19
2022-09-26T06:19:04.083Z,91.43
2022-09-26T06:20:04.034Z,91.24
2022-09-26T06:21:03.976Z,91.34
2022-09-26T06:22:03.923Z,91.39
2022-09-26T06:23:03.871Z,91.34
2022-09-26T06:24:03.819Z,91.49
2022-09-26T06:25:03.766Z,91.34
2022-09-26T06:26:03.718Z,91.43
2022-09-26T06:27:03.658Z,91.34
2022-09-26T06:28:03.607Z,91.34
2022-09-26T06:29:03.555Z,91.43
2022-09-26T06:30:03.499Z,90.95
2022-09-26T06:31:03.446Z,90.95
2022-09-26T06:32:03.486Z,90.76
2022-09-26T06:33:03.342Z,90.57
2022-09-26T06:34:03.287Z,90.95
2022-09-26T06:35:03.234Z,90.95
2022-09-26T06:36:03.182Z,91.00
2022-09-26T06:37:03.125Z,90.86
2022-09-26T06:38:03.073Z,91.24
2022-09-26T06:39:03.022Z,91.05
2022-09-26T06:40:02.973Z,91.00
2022-09-26T06:41:03.079Z,91.00
2022-09-26T06:42:02.868Z,91.00
2022-09-26T06:43:02.809Z,91.05
2022-09-26T06:44:02.754Z,90.91
2022-09-26T06:45:02.700Z,90.91
2022-09-26T06:46:02.649Z,91.00
2022-09-26T06:47:02.687Z,90.95
2022-09-26T06:48:02.545Z,90.72
2022-09-26T06:49:02.487Z,91.14
2022-09-26T06:50:02.437Z,91.49
2022-09-26T06:51:02.382Z,91.34
2022-09-26T06:52:02.330Z,91.43
2022-09-26T06:53:06.302Z,91.29
2022-09-26T06:54:02.229Z,91.29
2022-09-26T06:55:02.168Z,91.29
2022-09-26T06:56:02.118Z,91.14
2022-09-26T06:57:02.070Z,91.19
2022-09-26T06:58:02.021Z,91.43
2022-09-26T06:59:01.956Z,91.63
2022-09-26T07:00:02.011Z,91.43
2022-09-26T07:01:02.034Z,91.39
2022-09-26T07:02:01.943Z,91.24
2022-09-26T07:03:01.742Z,91.43
2022-09-26T07:04:01.693Z,91.19
2022-09-26T07:05:01.637Z,91.19
2022-09-26T07:06:01.586Z,91.24
2022-09-26T07:07:01.538Z,91.19
2022-09-26T07:08:01.489Z,91.24
2022-09-26T07:09:12.339Z,91.34
2022-09-26T07:10:01.372Z,91.43
2022-09-26T07:11:16.126Z,91.63
2022-09-26T07:12:16.177Z,91.58
2022-09-26T07:13:01.210Z,91.72
2022-09-26T07:14:01.167Z,92.06
2022-09-26T07:15:01.104Z,92.10
2022-09-26T07:16:01.093Z,91.96
2022-09-26T07:17:00.998Z,91.58
2022-09-26T07:18:00.946Z,91.49
2022-09-26T07:19:00.892Z,92.20
2022-09-26T07:20:00.840Z,91.82
2022-09-26T07:21:00.786Z,91.63
2022-09-26T07:22:00.734Z,91.77
2022-09-26T07:23:00.678Z,92.30
2022-09-26T07:24:00.743Z,92.30
2022-09-26T07:25:00.571Z,91.86
2022-09-26T07:26:00.521Z,91.82
2022-09-26T07:27:00.470Z,92.01
2022-09-26T07:28:00.417Z,92.15
2022-09-26T07:29:00.363Z,92.06
2022-09-26T07:30:00.321Z,91.91
2022-09-26T07:31:00.320Z,91.67
2022-09-26T07:32:00.259Z,91.91
2022-09-26T07:33:00.146Z,92.35
2022-09-26T07:34:00.099Z,91.77
2022-09-26T07:35:00.042Z,91.86
2022-09-26T07:36:05.041Z,91.72
2022-09-26T07:36:59.932Z,91.96
2022-09-26T07:37:59.885Z,91.72
2022-09-26T07:38:59.827Z,91.82
2022-09-26T07:40:01.752Z,91.77
2022-09-26T07:40:59.771Z,91.82
2022-09-26T07:41:59.670Z,91.58
2022-09-26T07:43:18.508Z,91.82
2022-09-26T07:45:23.214Z,92.10
2022-09-26T07:45:59.490Z,91.58
2022-09-26T07:46:59.460Z,91.77
2022-09-26T07:47:59.349Z,92.30
2022-09-26T07:48:59.294Z,92.30
2022-09-26T07:49:59.243Z,92.30
2022-09-26T07:50:59.188Z,92.20
2022-09-26T07:51:59.137Z,92.97
2022-09-26T07:52:59.081Z,92.25
2022-09-26T07:53:59.030Z,92.77
2022-09-26T07:54:59.013Z,92.58
2022-09-26T07:55:58.925Z,92.39
2022-09-26T07:56:58.869Z,92.58
2022-09-26T07:57:58.817Z,92.30
2022-09-26T07:58:58.763Z,92.58
2022-09-26T07:59:58.711Z,92.49
2022-09-26T08:00:58.655Z,92.30
2022-09-26T08:01:58.719Z,92.49
2022-09-26T08:02:58.596Z,92.30
2022-09-26T08:03:58.498Z,92.58
2022-09-26T08:05:01.069Z,92.49
2022-09-26T08:05:58.392Z,92.49
2022-09-26T08:06:58.379Z,92.49
2022-09-26T08:07:58.287Z,92.39
2022-09-26T08:08:58.237Z,92.58
2022-09-26T08:09:58.197Z,92.58
2022-09-26T08:11:12.973Z,92.39
2022-09-26T08:11:58.075Z,92.49
2022-09-26T08:12:58.020Z,92.58
2022-09-26T08:13:58.026Z,92.58
2022-09-26T08:14:57.910Z,92.30
2022-09-26T08:15:57.909Z,92.39
2022-09-26T08:16:57.804Z,92.39
2022-09-26T08:17:57.759Z,92.20
2022-09-26T08:18:57.698Z,91.91
2022-09-26T08:19:57.649Z,91.82
2022-09-26T08:20:57.593Z,92.01
2022-09-26T08:21:57.541Z,91.82
2022-09-26T08:22:57.484Z,92.10
2022-09-26T08:23:57.441Z,92.10
2022-09-26T08:24:57.381Z,92.30
2022-09-26T08:25:57.327Z,91.82
2022-09-26T08:26:57.274Z,92.10
2022-09-26T08:27:57.224Z,92.01
2022-09-26T08:28:57.166Z,91.82
2022-09-26T08:29:57.115Z,91.82
2022-09-26T08:30:57.133Z,91.91
2022-09-26T08:31:57.015Z,91.91
2022-09-26T08:32:56.954Z,92.01
2022-09-26T08:33:56.913Z,92.39
2022-09-26T08:34:56.852Z,92.30
2022-09-26T08:35:56.797Z,92.20
2022-09-26T08:36:56.741Z,92.39
2022-09-26T08:37:56.693Z,92.10
2022-09-26T08:38:56.634Z,92.30
2022-09-26T08:39:56.588Z,91.82
2022-09-26T08:40:56.630Z,92.20
2022-09-26T08:41:56.478Z,92.39
2022-09-26T08:42:56.425Z,92.01
2022-09-26T08:43:56.377Z,91.82
2022-09-26T08:44:56.323Z,91.82
2022-09-26T08:45:56.266Z,92.10
2022-09-26T08:46:56.262Z,91.82
2022-09-26T08:47:56.160Z,91.82
2022-09-26T08:48:56.104Z,91.72
2022-09-26T08:49:56.099Z,92.01
2022-09-26T08:50:56.000Z,92.10
2022-09-26T08:51:55.944Z,91.82
2022-09-26T08:52:55.894Z,92.10
2022-09-26T08:53:55.839Z,91.82
2022-09-26T08:54:55.794Z,91.63
2022-09-26T08:55:55.734Z,91.63
2022-09-26T08:56:55.680Z,92.20
2022-09-26T08:57:55.623Z,92.39
2022-09-26T08:58:55.572Z,91.72
2022-09-26T08:59:55.518Z,91.72
2022-09-26T09:00:55.468Z,91.91
2022-09-26T09:01:55.557Z,91.91
2022-09-26T09:02:55.478Z,91.82
2022-09-26T09:03:55.309Z,92.20
2022-09-26T09:04:55.253Z,92.10
2022-09-26T09:05:55.202Z,92.01
2022-09-26T09:06:55.147Z,92.20
2022-09-26T09:07:55.096Z,91.72
2022-09-26T09:08:55.040Z,91.82
2022-09-26T09:09:54.985Z,92.30
2022-09-26T09:10:54.937Z,92.39
2022-09-26T09:11:54.882Z,92.10
2022-09-26T09:12:54.827Z,92.39
2022-09-26T09:13:54.773Z,92.20
2022-09-26T09:15:20.542Z,92.30
2022-09-26T09:15:54.723Z,91.91
2022-09-26T09:16:54.623Z,91.43
2022-09-26T09:17:54.561Z,91.53
2022-09-26T09:18:54.514Z,92.01
2022-09-26T09:19:54.457Z,91.43
2022-09-26T09:20:54.404Z,92.10
2022-09-26T09:21:54.359Z,91.63
2022-09-26T09:23:08.994Z,91.72
2022-09-26T09:23:54.242Z,91.63
2022-09-26T09:24:54.194Z,91.14
2022-09-26T09:25:54.596Z,91.34
2022-09-26T09:27:55.166Z,91.05
2022-09-26T09:28:53.997Z,91.24
2022-09-26T09:29:53.925Z,91.24
2022-09-26T09:30:53.972Z,91.24
2022-09-26T09:31:53.816Z,91.14
2022-09-26T09:32:53.766Z,91.24
2022-09-26T09:33:53.723Z,91.14
2022-09-26T09:34:54.178Z,91.24
2022-09-26T09:35:53.686Z,91.43
2022-09-26T09:36:53.552Z,91.24
2022-09-26T09:37:53.510Z,91.43
2022-09-26T09:38:53.450Z,91.24
2022-09-26T09:39:53.398Z,91.43
2022-09-26T09:40:53.426Z,91.63
2022-09-26T09:41:53.996Z,91.24
2022-09-26T09:42:54.010Z,91.53
2022-09-26T09:43:53.179Z,91.43
2022-09-26T09:44:53.127Z,91.05
2022-09-26T09:45:53.076Z,90.76
2022-09-26T09:46:53.116Z,90.67
2022-09-26T09:47:52.966Z,91.14
2022-09-26T09:48:52.927Z,91.34
2022-09-26T09:49:52.859Z,90.95
2022-09-26T09:50:52.812Z,91.05
2022-09-26T09:51:52.753Z,90.95
2022-09-26T09:52:52.703Z,91.05
2022-09-26T09:53:52.657Z,90.38
2022-09-26T09:54:52.597Z,90.67
2022-09-26T09:55:52.543Z,90.57
2022-09-26T09:56:52.494Z,90.19
2022-09-26T09:57:52.434Z,90.47
2022-09-26T09:58:52.389Z,90.76
2022-09-26T09:59:52.332Z,90.09
2022-09-26T10:00:52.277Z,90.09
2022-09-26T10:01:52.223Z,90.00
2022-09-26T10:02:52.208Z,89.90
2022-09-26T10:03:52.118Z,89.90
2022-09-26T10:04:52.065Z,90.09
2022-09-26T10:05:52.012Z,90.00
2022-09-26T10:06:51.958Z,90.47
2022-09-26T10:07:51.908Z,90.47
2022-09-26T10:08:51.862Z,89.90
2022-09-26T10:09:51.816Z,90.00
2022-09-26T10:10:51.753Z,90.47
2022-09-26T10:11:52.681Z,90.33
2022-09-26T10:12:51.643Z,89.71
2022-09-26T10:13:51.587Z,90.47
2022-09-26T10:14:51.534Z,90.19
2022-09-26T10:15:51.577Z,90.19
2022-09-26T10:16:51.428Z,90.09
2022-09-26T10:18:12.757Z,89.71
2022-09-26T10:18:51.329Z,90.09
2022-09-26T10:19:51.272Z,89.51
2022-09-26T10:20:51.218Z,90.00
2022-09-26T10:21:51.161Z,90.19
2022-09-26T10:22:51.113Z,90.19
2022-09-26T10:23:51.058Z,90.19
2022-09-26T10:24:51.004Z,89.51
2022-09-26T10:25:50.964Z,89.75
2022-09-26T10:26:50.902Z,90.04
2022-09-26T10:27:50.845Z,89.61
2022-09-26T10:28:50.803Z,89.80
2022-09-26T10:29:50.759Z,89.42
2022-09-26T10:30:50.723Z,89.90
2022-09-26T10:31:50.672Z,89.51
2022-09-26T10:32:55.442Z,89.51
2022-09-26T10:33:50.532Z,89.51
2022-09-26T10:34:50.476Z,89.37
2022-09-26T10:35:50.422Z,89.47
2022-09-26T10:36:50.367Z,89.42
2022-09-26T10:37:50.314Z,89.47
2022-09-26T10:38:50.262Z,89.71
2022-09-26T10:39:50.208Z,89.71
2022-09-26T10:40:50.191Z,89.37
2022-09-26T10:41:50.112Z,89.56
2022-09-26T10:42:50.058Z,89.61
2022-09-26T10:43:49.995Z,89.65
2022-09-26T10:44:49.946Z,89.56
2022-09-26T10:45:49.893Z,89.65
2022-09-26T10:46:49.895Z,89.71
2022-09-26T10:47:49.802Z,89.51
2022-09-26T10:48:49.771Z,89.42
2022-09-26T10:49:49.676Z,89.65
2022-09-26T10:50:49.627Z,89.56
2022-09-26T10:51:49.571Z,89.61
2022-09-26T10:52:49.520Z,89.80
2022-09-26T10:53:49.465Z,89.47
2022-09-26T10:54:49.414Z,90.04
2022-09-26T10:55:49.362Z,89.61
2022-09-26T10:56:49.308Z,89.90
2022-09-26T10:57:49.262Z,89.51
2022-09-26T10:58:49.202Z,89.51
2022-09-26T10:59:49.146Z,89.65
2022-09-26T11:00:49.097Z,89.71
2022-09-26T11:01:49.163Z,89.42
2022-09-26T11:02:48.996Z,89.61
2022-09-26T11:03:49.039Z,89.61
2022-09-26T11:04:48.884Z,89.47
2022-09-26T11:05:48.830Z,89.51
2022-09-26T11:06:48.778Z,89.80
2022-09-26T11:07:48.724Z,90.04
2022-09-26T11:08:48.670Z,88.98
2022-09-26T11:09:48.617Z,89.75
2022-09-26T11:10:48.565Z,90.04
2022-09-26T11:11:48.514Z,88.98
2022-09-26T11:12:48.462Z,88.89
2022-09-26T11:13:48.412Z,89.08
2022-09-26T11:14:48.353Z,88.98
2022-09-26T11:15:48.332Z,89.18
2022-09-26T11:16:48.248Z,88.98
2022-09-26T11:17:48.193Z,88.89
2022-09-26T11:18:48.225Z,88.98
2022-09-26T11:19:52.363Z,89.37
2022-09-26T11:20:48.036Z,88.89
2022-09-26T11:21:47.982Z,89.08
2022-09-26T11:22:47.932Z,89.75
2022-09-26T11:23:47.876Z,89.08
2022-09-26T11:24:47.829Z,89.18
2022-09-26T11:25:47.772Z,88.89
2022-09-26T11:26:47.719Z,88.79
2022-09-26T11:27:47.665Z,88.51
2022-09-26T11:28:47.638Z,89.27
2022-09-26T11:29:47.605Z,89.27
2022-09-26T11:30:47.534Z,88.79
2022-09-26T11:31:47.458Z,88.60
2022-09-26T11:32:47.400Z,89.27
2022-09-26T11:33:47.345Z,89.18
2022-09-26T11:34:47.296Z,89.37
2022-09-26T11:35:47.243Z,88.70
2022-09-26T11:36:47.188Z,88.31
2022-09-26T11:37:47.137Z,88.70
2022-09-26T11:38:47.127Z,88.51
2022-09-26T11:39:47.032Z,88.89
2022-09-26T11:40:46.999Z,88.41
2022-09-26T11:41:46.931Z,88.22
2022-09-26T11:42:46.871Z,88.79
2022-09-26T11:43:46.823Z,88.41
2022-09-26T11:44:46.765Z,88.31
2022-09-26T11:45:47.721Z,88.60
2022-09-26T11:46:46.765Z,88.98
2022-09-26T11:47:46.605Z,88.79
2022-09-26T11:48:46.657Z,88.89
2022-09-26T11:49:46.503Z,88.98
2022-09-26T11:50:46.449Z,88.60
2022-09-26T11:51:46.394Z,88.60
2022-09-26T11:52:49.202Z,88.60
2022-09-26T11:53:46.318Z,88.89
2022-09-26T11:54:46.237Z,88.60
2022-09-26T11:55:46.183Z,88.70
2022-09-26T11:56:46.131Z,88.79
2022-09-26T11:57:46.079Z,88.70
2022-09-26T11:58:46.125Z,88.98
2022-09-26T11:59:45.973Z,88.70
2022-09-26T12:00:45.921Z,88.89
2022-09-26T12:01:45.869Z,89.08
2022-09-26T12:02:45.919Z,88.70
2022-09-26T12:03:45.939Z,88.79
2022-09-26T12:04:45.707Z,88.22
2022-09-26T12:05:45.653Z,88.41
2022-09-26T12:06:45.601Z,88.51
2022-09-26T12:07:45.552Z,87.93
2022-09-26T12:08:45.501Z,87.84
2022-09-26T12:09:45.441Z,87.74
2022-09-26T12:10:45.393Z,88.02
2022-09-26T12:11:45.336Z,87.84
2022-09-26T12:12:47.047Z,88.12
2022-09-26T12:13:45.229Z,88.02
2022-09-26T12:14:45.179Z,88.02
2022-09-26T12:15:45.154Z,87.55
2022-09-26T12:16:45.072Z,87.84
2022-09-26T12:17:45.029Z,87.45
2022-09-26T12:18:44.968Z,86.97
2022-09-26T12:19:44.913Z,87.55
2022-09-26T12:20:44.860Z,87.45
2022-09-26T12:21:44.807Z,87.26
2022-09-26T12:22:44.755Z,87.35
2022-09-26T12:23:44.703Z,87.84
2022-09-26T12:24:44.665Z,87.55
2022-09-26T12:25:44.608Z,86.97
2022-09-26T12:26:44.549Z,87.45
2022-09-26T12:27:44.490Z,86.88
2022-09-26T12:28:44.439Z,86.88
2022-09-26T12:29:44.389Z,87.64
2022-09-26T12:30:44.391Z,87.64
2022-09-26T12:31:44.340Z,87.74
2022-09-26T12:32:44.234Z,87.64
2022-09-26T12:33:45.028Z,87.64
2022-09-26T12:34:44.122Z,87.26
2022-09-26T12:35:44.067Z,86.88
2022-09-26T12:36:44.050Z,86.97
2022-09-26T12:37:44.006Z,87.45
2022-09-26T12:38:44.030Z,87.16
2022-09-26T12:39:43.878Z,87.45
2022-09-26T12:40:43.888Z,87.55
2022-09-26T12:41:43.748Z,87.64
2022-09-26T12:42:43.701Z,87.84
2022-09-26T12:43:43.658Z,88.02
2022-09-26T12:44:43.604Z,87.64
2022-09-26T12:45:43.544Z,87.55
2022-09-26T12:46:43.582Z,87.35
2022-09-26T12:47:43.437Z,87.84
2022-09-26T12:48:43.410Z,88.22
2022-09-26T12:49:43.358Z,88.31
2022-09-26T12:50:43.290Z,88.60
2022-09-26T12:51:43.243Z,88.12
2022-09-26T12:52:43.173Z,88.41
2022-09-26T12:53:43.115Z,88.41